Grand Forks, North Dakota
Current Conditions -  °F | °C
As of 7:53 PM on Thursday 18 Dec 2014 (Local Time) from KGFK Reporting Station
Overcast Overcast  
Wind Chill: -14°   Ceiling: 1500
Heat Index: -7°   Visibility: 10mi
Dew Point: -9°   Wind: 13mph
Humidity: 81%   Direction: 170°S
Pressure: 30.15"   Gusts: NA
Location:  47.92°N, 97.03°W
Report Text: KGFK 190153Z 17011KT 10SM OVC015 M07/M09 A3015 RMK AO2 SLP229 T10671094
Loading
Personal Weather Stations






























Interactive Weather Map New forecast layout! Learn more

10-Day Weather Forecast

Advertisements
Track Severe Weather on mobile